sensor_id;sensor_type;location;lat;lon;timestamp;temperature;humidity
41533;DHT22;27262;-35.248;149.138;2024-01-06T00:02:10;22.00;64.00
41533;DHT22;27262;-35.248;149.138;2024-01-06T00:04:41;22.10;64.00
41533;DHT22;27262;-35.248;149.138;2024-01-06T00:07:11;22.10;64.00
41533;DHT22;27262;-35.248;149.138;2024-01-06T00:09:43;22.10;63.90
41533;DHT22;27262;-35.248;149.138;2024-01-06T00:12:13;22.10;64.00
41533;DHT22;27262;-35.248;149.138;2024-01-06T00:14:44;22.10;63.90
41533;DHT22;27262;-35.248;149.138;2024-01-06T00:17:15;22.10;63.90
41533;DHT22;27262;-35.248;149.138;2024-01-06T00:19:46;22.10;63.90
41533;DHT22;27262;-35.248;149.138;2024-01-06T00:22:20;22.10;63.80
41533;DHT22;27262;-35.248;149.138;2024-01-06T00:24:51;22.10;63.80
41533;DHT22;27262;-35.248;149.138;2024-01-06T00:27:21;22.10;63.70
41533;DHT22;27262;-35.248;149.138;2024-01-06T00:29:51;22.10;63.70
41533;DHT22;27262;-35.248;149.138;2024-01-06T00:32:22;22.20;63.70
41533;DHT22;27262;-35.248;149.138;2024-01-06T00:34:52;22.20;63.60
41533;DHT22;27262;-35.248;149.138;2024-01-06T00:37:22;22.20;63.50
41533;DHT22;27262;-35.248;149.138;2024-01-06T00:39:53;22.20;63.50
41533;DHT22;27262;-35.248;149.138;2024-01-06T00:42:23;22.20;63.40
41533;DHT22;27262;-35.248;149.138;2024-01-06T00:44:54;22.20;63.40
41533;DHT22;27262;-35.248;149.138;2024-01-06T00:47:25;22.20;63.30
41533;DHT22;27262;-35.248;149.138;2024-01-06T00:49:55;22.20;63.20
41533;DHT22;27262;-35.248;149.138;2024-01-06T00:52:26;22.20;63.20
41533;DHT22;27262;-35.248;149.138;2024-01-06T00:54:56;22.20;63.10
41533;DHT22;27262;-35.248;149.138;2024-01-06T00:57:26;22.20;63.10
41533;DHT22;27262;-35.248;149.138;2024-01-06T00:59:57;22.20;63.00
41533;DHT22;27262;-35.248;149.138;2024-01-06T01:02:27;22.30;63.10
41533;DHT22;27262;-35.248;149.138;2024-01-06T01:05:00;22.30;63.00
41533;DHT22;27262;-35.248;149.138;2024-01-06T01:07:31;22.30;63.00
41533;DHT22;27262;-35.248;149.138;2024-01-06T01:10:02;22.30;63.80
41533;DHT22;27262;-35.248;149.138;2024-01-06T01:12:32;22.30;63.00
41533;DHT22;27262;-35.248;149.138;2024-01-06T01:15:03;22.30;63.00
41533;DHT22;27262;-35.248;149.138;2024-01-06T01:17:33;22.30;62.90
41533;DHT22;27262;-35.248;149.138;2024-01-06T01:20:04;22.30;62.80
41533;DHT22;27262;-35.248;149.138;2024-01-06T01:22:35;22.40;62.90
41533;DHT22;27262;-35.248;149.138;2024-01-06T01:25:05;22.40;62.80
41533;DHT22;27262;-35.248;149.138;2024-01-06T01:27:38;22.40;62.80
41533;DHT22;27262;-35.248;149.138;2024-01-06T01:30:09;22.30;62.70
41533;DHT22;27262;-35.248;149.138;2024-01-06T01:32:40;22.40;62.70
41533;DHT22;27262;-35.248;149.138;2024-01-06T01:35:11;22.40;62.70
41533;DHT22;27262;-35.248;149.138;2024-01-06T01:37:41;22.40;62.70
41533;DHT22;27262;-35.248;149.138;2024-01-06T01:40:12;22.40;62.80
41533;DHT22;27262;-35.248;149.138;2024-01-06T01:42:45;22.40;62.80
41533;DHT22;27262;-35.248;149.138;2024-01-06T01:45:16;22.50;63.00
41533;DHT22;27262;-35.248;149.138;2024-01-06T01:47:47;22.50;63.10
41533;DHT22;27262;-35.248;149.138;2024-01-06T01:50:17;22.50;63.10
41533;DHT22;27262;-35.248;149.138;2024-01-06T01:52:49;22.50;63.00
41533;DHT22;27262;-35.248;149.138;2024-01-06T01:55:20;22.50;62.80
41533;DHT22;27262;-35.248;149.138;2024-01-06T01:57:50;22.50;62.70
41533;DHT22;27262;-35.248;149.138;2024-01-06T02:00:21;22.50;62.50
41533;DHT22;27262;-35.248;149.138;2024-01-06T02:02:54;22.50;62.20
41533;DHT22;27262;-35.248;149.138;2024-01-06T02:05:25;22.50;62.10
41533;DHT22;27262;-35.248;149.138;2024-01-06T02:07:55;22.50;61.80
41533;DHT22;27262;-35.248;149.138;2024-01-06T02:10:26;22.50;61.60
41533;DHT22;27262;-35.248;149.138;2024-01-06T02:12:57;22.60;61.50
41533;DHT22;27262;-35.248;149.138;2024-01-06T02:15:36;22.60;61.40
41533;DHT22;27262;-35.248;149.138;2024-01-06T02:18:08;22.60;61.30
41533;DHT22;27262;-35.248;149.138;2024-01-06T02:20:43;22.60;61.20
41533;DHT22;27262;-35.248;149.138;2024-01-06T02:23:14;22.60;61.10
41533;DHT22;27262;-35.248;149.138;2024-01-06T02:25:44;22.60;61.10
41533;DHT22;27262;-35.248;149.138;2024-01-06T02:28:14;22.60;61.10
41533;DHT22;27262;-35.248;149.138;2024-01-06T02:30:46;22.60;61.00
41533;DHT22;27262;-35.248;149.138;2024-01-06T02:33:16;22.60;61.10
41533;DHT22;27262;-35.248;149.138;2024-01-06T02:35:49;22.70;61.10
41533;DHT22;27262;-35.248;149.138;2024-01-06T02:38:19;22.70;60.90
41533;DHT22;27262;-35.248;149.138;2024-01-06T02:40:49;22.70;60.90
41533;DHT22;27262;-35.248;149.138;2024-01-06T02:43:20;22.70;60.70
41533;DHT22;27262;-35.248;149.138;2024-01-06T02:45:53;22.70;60.60
41533;DHT22;27262;-35.248;149.138;2024-01-06T02:48:23;22.70;60.50
41533;DHT22;27262;-35.248;149.138;2024-01-06T02:50:54;22.70;60.50
41533;DHT22;27262;-35.248;149.138;2024-01-06T02:53:24;22.70;60.50
41533;DHT22;27262;-35.248;149.138;2024-01-06T02:55:55;22.80;60.50
41533;DHT22;27262;-35.248;149.138;2024-01-06T02:58:25;22.70;60.60
41533;DHT22;27262;-35.248;149.138;2024-01-06T03:00:56;22.70;60.70
41533;DHT22;27262;-35.248;149.138;2024-01-06T03:03:26;22.80;60.90
41533;DHT22;27262;-35.248;149.138;2024-01-06T03:05:57;22.80;60.90
41533;DHT22;27262;-35.248;149.138;2024-01-06T03:08:27;22.80;61.00
41533;DHT22;27262;-35.248;149.138;2024-01-06T03:10:58;22.80;61.00
41533;DHT22;27262;-35.248;149.138;2024-01-06T03:13:28;22.80;61.10
41533;DHT22;27262;-35.248;149.138;2024-01-06T03:16:04;22.90;61.20
41533;DHT22;27262;-35.248;149.138;2024-01-06T03:18:35;22.90;61.30
41533;DHT22;27262;-35.248;149.138;2024-01-06T03:21:17;22.90;61.30
41533;DHT22;27262;-35.248;149.138;2024-01-06T03:23:51;22.90;61.40
41533;DHT22;27262;-35.248;149.138;2024-01-06T03:26:21;22.90;61.50
41533;DHT22;27262;-35.248;149.138;2024-01-06T03:28:52;22.90;61.50
41533;DHT22;27262;-35.248;149.138;2024-01-06T03:31:22;22.90;61.70
41533;DHT22;27262;-35.248;149.138;2024-01-06T03:33:53;22.90;61.60
41533;DHT22;27262;-35.248;149.138;2024-01-06T03:36:25;22.90;61.60
41533;DHT22;27262;-35.248;149.138;2024-01-06T03:38:55;22.90;61.60
41533;DHT22;27262;-35.248;149.138;2024-01-06T03:41:26;23.00;61.80
41533;DHT22;27262;-35.248;149.138;2024-01-06T03:43:56;23.00;61.70
41533;DHT22;27262;-35.248;149.138;2024-01-06T03:46:30;23.00;61.70
41533;DHT22;27262;-35.248;149.138;2024-01-06T03:49:00;23.00;61.70
41533;DHT22;27262;-35.248;149.138;2024-01-06T03:51:31;23.00;61.80
41533;DHT22;27262;-35.248;149.138;2024-01-06T03:54:01;23.00;61.80
41533;DHT22;27262;-35.248;149.138;2024-01-06T03:56:31;23.00;61.80
41533;DHT22;27262;-35.248;149.138;2024-01-06T03:59:02;23.00;61.70
41533;DHT22;27262;-35.248;149.138;2024-01-06T04:01:32;23.00;61.80
41533;DHT22;27262;-35.248;149.138;2024-01-06T04:04:05;23.10;61.80
41533;DHT22;27262;-35.248;149.138;2024-01-06T04:06:36;23.10;61.80
41533;DHT22;27262;-35.248;149.138;2024-01-06T04:09:07;23.10;61.80
41533;DHT22;27262;-35.248;149.138;2024-01-06T04:11:39;23.10;61.80
41533;DHT22;27262;-35.248;149.138;2024-01-06T04:14:12;23.10;61.90
41533;DHT22;27262;-35.248;149.138;2024-01-06T04:16:42;23.20;61.90
41533;DHT22;27262;-35.248;149.138;2024-01-06T04:19:12;23.10;61.90
41533;DHT22;27262;-35.248;149.138;2024-01-06T04:21:44;23.20;61.90
41533;DHT22;27262;-35.248;149.138;2024-01-06T04:24:15;23.20;62.20
41533;DHT22;27262;-35.248;149.138;2024-01-06T04:26:45;23.20;62.40
41533;DHT22;27262;-35.248;149.138;2024-01-06T04:29:16;23.30;62.70
41533;DHT22;27262;-35.248;149.138;2024-01-06T04:31:46;23.30;62.70
41533;DHT22;27262;-35.248;149.138;2024-01-06T04:34:17;23.30;62.80
41533;DHT22;27262;-35.248;149.138;2024-01-06T04:36:47;23.30;62.90
41533;DHT22;27262;-35.248;149.138;2024-01-06T04:39:20;23.40;63.00
41533;DHT22;27262;-35.248;149.138;2024-01-06T04:41:50;23.40;63.00
41533;DHT22;27262;-35.248;149.138;2024-01-06T04:44:22;23.40;63.00
41533;DHT22;27262;-35.248;149.138;2024-01-06T04:46:52;23.40;62.80
41533;DHT22;27262;-35.248;149.138;2024-01-06T04:49:23;23.40;62.80
41533;DHT22;27262;-35.248;149.138;2024-01-06T04:51:53;23.50;62.70
41533;DHT22;27262;-35.248;149.138;2024-01-06T04:54:24;23.50;62.60
41533;DHT22;27262;-35.248;149.138;2024-01-06T04:56:54;23.60;62.60
41533;DHT22;27262;-35.248;149.138;2024-01-06T04:59:25;23.50;62.50
41533;DHT22;27262;-35.248;149.138;2024-01-06T05:01:57;23.60;62.50
41533;DHT22;27262;-35.248;149.138;2024-01-06T05:04:28;23.60;62.30
41533;DHT22;27262;-35.248;149.138;2024-01-06T05:07:00;23.60;62.20
41533;DHT22;27262;-35.248;149.138;2024-01-06T05:09:30;23.60;62.10
41533;DHT22;27262;-35.248;149.138;2024-01-06T05:12:01;23.70;62.20
41533;DHT22;27262;-35.248;149.138;2024-01-06T05:14:31;23.70;62.10
41533;DHT22;27262;-35.248;149.138;2024-01-06T05:17:01;23.70;62.00
41533;DHT22;27262;-35.248;149.138;2024-01-06T05:19:32;23.70;61.90
41533;DHT22;27262;-35.248;149.138;2024-01-06T05:22:03;23.80;61.90
41533;DHT22;27262;-35.248;149.138;2024-01-06T05:24:33;23.80;61.80
41533;DHT22;27262;-35.248;149.138;2024-01-06T05:27:04;23.80;61.80
41533;DHT22;27262;-35.248;149.138;2024-01-06T05:29:39;23.80;61.70
41533;DHT22;27262;-35.248;149.138;2024-01-06T05:32:09;23.80;61.70
41533;DHT22;27262;-35.248;149.138;2024-01-06T05:34:40;23.80;61.70
41533;DHT22;27262;-35.248;149.138;2024-01-06T05:37:10;23.90;61.70
41533;DHT22;27262;-35.248;149.138;2024-01-06T05:39:41;23.90;61.70
41533;DHT22;27262;-35.248;149.138;2024-01-06T05:42:12;23.90;61.70
41533;DHT22;27262;-35.248;149.138;2024-01-06T05:44:44;23.90;61.70
41533;DHT22;27262;-35.248;149.138;2024-01-06T05:47:15;23.90;62.40
41533;DHT22;27262;-35.248;149.138;2024-01-06T05:49:46;23.90;61.50
41533;DHT22;27262;-35.248;149.138;2024-01-06T05:52:17;24.00;61.50
41533;DHT22;27262;-35.248;149.138;2024-01-06T05:54:47;24.00;61.50
41533;DHT22;27262;-35.248;149.138;2024-01-06T05:57:17;24.00;61.50
41533;DHT22;27262;-35.248;149.138;2024-01-06T05:59:48;24.00;61.40
41533;DHT22;27262;-35.248;149.138;2024-01-06T06:02:18;24.00;61.40
41533;DHT22;27262;-35.248;149.138;2024-01-06T06:04:48;24.00;61.40
41533;DHT22;27262;-35.248;149.138;2024-01-06T06:07:37;24.10;61.40
41533;DHT22;27262;-35.248;149.138;2024-01-06T06:10:29;24.10;61.40
41533;DHT22;27262;-35.248;149.138;2024-01-06T06:13:30;24.10;61.40
41533;DHT22;27262;-35.248;149.138;2024-01-06T06:16:21;24.10;61.40
41533;DHT22;27262;-35.248;149.138;2024-01-06T06:19:12;24.10;61.40
41533;DHT22;27262;-35.248;149.138;2024-01-06T06:22:03;24.10;61.40
41533;DHT22;27262;-35.248;149.138;2024-01-06T06:24:54;24.10;61.30
41533;DHT22;27262;-35.248;149.138;2024-01-06T06:27:44;24.10;61.30
41533;DHT22;27262;-35.248;149.138;2024-01-06T06:30:35;24.10;61.40
41533;DHT22;27262;-35.248;149.138;2024-01-06T06:33:26;24.10;61.30
41533;DHT22;27262;-35.248;149.138;2024-01-06T06:36:17;24.10;61.40
41533;DHT22;27262;-35.248;149.138;2024-01-06T06:39:07;24.10;61.20
41533;DHT22;27262;-35.248;149.138;2024-01-06T06:41:58;24.20;61.30
41533;DHT22;27262;-35.248;149.138;2024-01-06T06:44:49;24.20;61.20
41533;DHT22;27262;-35.248;149.138;2024-01-06T06:47:40;24.20;61.50
41533;DHT22;27262;-35.248;149.138;2024-01-06T06:50:31;24.20;61.80
41533;DHT22;27262;-35.248;149.138;2024-01-06T06:53:21;24.20;61.90
41533;DHT22;27262;-35.248;149.138;2024-01-06T06:56:12;24.20;61.90
41533;DHT22;27262;-35.248;149.138;2024-01-06T06:59:06;24.20;62.00
41533;DHT22;27262;-35.248;149.138;2024-01-06T07:01:57;24.20;62.10
41533;DHT22;27262;-35.248;149.138;2024-01-06T07:04:48;24.20;62.00
41533;DHT22;27262;-35.248;149.138;2024-01-06T07:07:39;24.30;62.00
41533;DHT22;27262;-35.248;149.138;2024-01-06T07:10:29;24.30;62.00
41533;DHT22;27262;-35.248;149.138;2024-01-06T07:13:20;24.30;62.10
41533;DHT22;27262;-35.248;149.138;2024-01-06T07:16:11;24.30;62.10
41533;DHT22;27262;-35.248;149.138;2024-01-06T07:19:07;24.30;62.10
41533;DHT22;27262;-35.248;149.138;2024-01-06T07:21:57;24.30;62.00
41533;DHT22;27262;-35.248;149.138;2024-01-06T07:24:52;24.30;62.00
41533;DHT22;27262;-35.248;149.138;2024-01-06T07:27:22;24.30;62.00
41533;DHT22;27262;-35.248;149.138;2024-01-06T07:29:53;24.30;61.90
41533;DHT22;27262;-35.248;149.138;2024-01-06T07:32:24;24.30;61.80
41533;DHT22;27262;-35.248;149.138;2024-01-06T07:34:55;24.30;61.80
41533;DHT22;27262;-35.248;149.138;2024-01-06T07:37:27;24.30;61.70
41533;DHT22;27262;-35.248;149.138;2024-01-06T07:39:57;24.30;61.70
41533;DHT22;27262;-35.248;149.138;2024-01-06T07:42:28;24.30;61.70
41533;DHT22;27262;-35.248;149.138;2024-01-06T07:44:59;24.30;61.70
41533;DHT22;27262;-35.248;149.138;2024-01-06T07:47:29;24.30;61.60
41533;DHT22;27262;-35.248;149.138;2024-01-06T07:50:00;24.30;61.60
41533;DHT22;27262;-35.248;149.138;2024-01-06T07:52:30;24.30;61.50
41533;DHT22;27262;-35.248;149.138;2024-01-06T07:55:02;24.40;61.70
41533;DHT22;27262;-35.248;149.138;2024-01-06T07:57:33;24.30;61.80
41533;DHT22;27262;-35.248;149.138;2024-01-06T08:00:04;24.30;61.70
41533;DHT22;27262;-35.248;149.138;2024-01-06T08:02:34;24.40;61.80
41533;DHT22;27262;-35.248;149.138;2024-01-06T08:05:05;24.40;61.80
41533;DHT22;27262;-35.248;149.138;2024-01-06T08:07:36;24.40;61.90
41533;DHT22;27262;-35.248;149.138;2024-01-06T08:10:07;24.40;61.80
41533;DHT22;27262;-35.248;149.138;2024-01-06T08:12:38;24.40;61.80
41533;DHT22;27262;-35.248;149.138;2024-01-06T08:15:09;24.40;61.80
41533;DHT22;27262;-35.248;149.138;2024-01-06T08:17:39;24.40;61.80
41533;DHT22;27262;-35.248;149.138;2024-01-06T08:20:10;24.40;61.80
41533;DHT22;27262;-35.248;149.138;2024-01-06T08:22:41;24.40;61.70
41533;DHT22;27262;-35.248;149.138;2024-01-06T08:25:11;24.40;61.70
41533;DHT22;27262;-35.248;149.138;2024-01-06T08:27:43;24.40;61.70
41533;DHT22;27262;-35.248;149.138;2024-01-06T08:30:31;24.40;61.60
41533;DHT22;27262;-35.248;149.138;2024-01-06T08:33:03;24.40;61.60
41533;DHT22;27262;-35.248;149.138;2024-01-06T08:35:33;24.40;61.60
41533;DHT22;27262;-35.248;149.138;2024-01-06T08:38:10;24.40;61.60
41533;DHT22;27262;-35.248;149.138;2024-01-06T08:40:40;24.40;61.70
41533;DHT22;27262;-35.248;149.138;2024-01-06T08:43:11;24.40;61.70
41533;DHT22;27262;-35.248;149.138;2024-01-06T08:45:42;24.40;61.60
41533;DHT22;27262;-35.248;149.138;2024-01-06T08:48:12;24.40;61.60
41533;DHT22;27262;-35.248;149.138;2024-01-06T08:50:44;24.40;61.70
41533;DHT22;27262;-35.248;149.138;2024-01-06T08:53:16;24.40;61.60
41533;DHT22;27262;-35.248;149.138;2024-01-06T08:55:46;24.40;61.60
41533;DHT22;27262;-35.248;149.138;2024-01-06T08:58:16;24.40;61.60
41533;DHT22;27262;-35.248;149.138;2024-01-06T09:00:47;24.40;61.60
41533;DHT22;27262;-35.248;149.138;2024-01-06T09:03:17;24.40;61.60
41533;DHT22;27262;-35.248;149.138;2024-01-06T09:05:48;24.40;61.60
41533;DHT22;27262;-35.248;149.138;2024-01-06T09:08:21;24.40;61.50
41533;DHT22;27262;-35.248;149.138;2024-01-06T09:10:55;24.40;61.50
41533;DHT22;27262;-35.248;149.138;2024-01-06T09:13:26;24.40;61.60
41533;DHT22;27262;-35.248;149.138;2024-01-06T09:15:56;24.40;61.60
41533;DHT22;27262;-35.248;149.138;2024-01-06T09:18:29;24.40;61.60
41533;DHT22;27262;-35.248;149.138;2024-01-06T09:21:00;24.40;61.50
41533;DHT22;27262;-35.248;149.138;2024-01-06T09:23:30;24.40;61.50
41533;DHT22;27262;-35.248;149.138;2024-01-06T09:26:01;24.40;61.50
41533;DHT22;27262;-35.248;149.138;2024-01-06T09:28:32;24.40;61.50
41533;DHT22;27262;-35.248;149.138;2024-01-06T09:31:03;24.40;61.50
41533;DHT22;27262;-35.248;149.138;2024-01-06T09:33:34;24.40;61.50
41533;DHT22;27262;-35.248;149.138;2024-01-06T09:36:05;24.40;61.40
41533;DHT22;27262;-35.248;149.138;2024-01-06T09:38:35;24.40;61.40
41533;DHT22;27262;-35.248;149.138;2024-01-06T09:41:06;24.40;61.40
41533;DHT22;27262;-35.248;149.138;2024-01-06T09:43:38;24.40;61.40
41533;DHT22;27262;-35.248;149.138;2024-01-06T09:46:28;24.40;61.40
41533;DHT22;27262;-35.248;149.138;2024-01-06T09:49:02;24.40;61.20
41533;DHT22;27262;-35.248;149.138;2024-01-06T09:51:35;24.40;61.40
41533;DHT22;27262;-35.248;149.138;2024-01-06T09:54:12;24.40;61.30
41533;DHT22;27262;-35.248;149.138;2024-01-06T09:56:45;24.40;61.30
41533;DHT22;27262;-35.248;149.138;2024-01-06T09:59:16;24.40;61.30
41533;DHT22;27262;-35.248;149.138;2024-01-06T10:01:49;24.40;61.30
41533;DHT22;27262;-35.248;149.138;2024-01-06T10:04:22;24.30;61.20
41533;DHT22;27262;-35.248;149.138;2024-01-06T10:06:53;24.30;61.20
41533;DHT22;27262;-35.248;149.138;2024-01-06T10:09:28;24.40;61.30
41533;DHT22;27262;-35.248;149.138;2024-01-06T10:11:58;24.30;61.10
41533;DHT22;27262;-35.248;149.138;2024-01-06T10:14:29;24.30;62.00
41533;DHT22;27262;-35.248;149.138;2024-01-06T10:16:59;24.30;61.20
41533;DHT22;27262;-35.248;149.138;2024-01-06T10:19:30;24.30;61.20
41533;DHT22;27262;-35.248;149.138;2024-01-06T10:22:01;24.30;61.10
41533;DHT22;27262;-35.248;149.138;2024-01-06T10:24:32;24.30;61.10
41533;DHT22;27262;-35.248;149.138;2024-01-06T10:27:03;24.30;61.10
41533;DHT22;27262;-35.248;149.138;2024-01-06T10:29:33;24.30;61.10
41533;DHT22;27262;-35.248;149.138;2024-01-06T10:32:04;24.30;61.10
41533;DHT22;27262;-35.248;149.138;2024-01-06T10:34:36;24.30;61.10
41533;DHT22;27262;-35.248;149.138;2024-01-06T10:37:06;24.30;61.10
41533;DHT22;27262;-35.248;149.138;2024-01-06T10:39:37;24.30;61.20
41533;DHT22;27262;-35.248;149.138;2024-01-06T10:42:08;24.30;61.10
41533;DHT22;27262;-35.248;149.138;2024-01-06T10:44:41;24.30;61.20
41533;DHT22;27262;-35.248;149.138;2024-01-06T10:47:15;24.30;61.30
41533;DHT22;27262;-35.248;149.138;2024-01-06T10:49:47;24.30;61.20
41533;DHT22;27262;-35.248;149.138;2024-01-06T10:52:25;24.30;61.20
41533;DHT22;27262;-35.248;149.138;2024-01-06T10:54:57;24.30;61.30
41533;DHT22;27262;-35.248;149.138;2024-01-06T10:57:29;24.30;61.30
41533;DHT22;27262;-35.248;149.138;2024-01-06T11:00:01;24.30;61.30
41533;DHT22;27262;-35.248;149.138;2024-01-06T11:02:32;24.30;61.40
41533;DHT22;27262;-35.248;149.138;2024-01-06T11:05:04;24.30;61.40
41533;DHT22;27262;-35.248;149.138;2024-01-06T11:07:37;24.30;61.50
41533;DHT22;27262;-35.248;149.138;2024-01-06T11:10:15;24.30;61.70
41533;DHT22;27262;-35.248;149.138;2024-01-06T11:12:55;24.30;61.60
41533;DHT22;27262;-35.248;149.138;2024-01-06T11:15:45;24.30;61.70
41533;DHT22;27262;-35.248;149.138;2024-01-06T11:21:24;24.30;61.40
41533;DHT22;27262;-35.248;149.138;2024-01-06T11:26:39;24.20;61.50
41533;DHT22;27262;-35.248;149.138;2024-01-06T11:29:10;24.20;61.50
41533;DHT22;27262;-35.248;149.138;2024-01-06T11:31:41;24.20;61.60
41533;DHT22;27262;-35.248;149.138;2024-01-06T11:34:18;24.20;61.60
41533;DHT22;27262;-35.248;149.138;2024-01-06T11:36:51;24.20;61.50
41533;DHT22;27262;-35.248;149.138;2024-01-06T11:39:40;24.20;61.60
41533;DHT22;27262;-35.248;149.138;2024-01-06T11:42:11;24.20;61.40
41533;DHT22;27262;-35.248;149.138;2024-01-06T11:44:49;24.20;61.60
41533;DHT22;27262;-35.248;149.138;2024-01-06T11:47:21;24.20;61.60
41533;DHT22;27262;-35.248;149.138;2024-01-06T11:49:55;24.20;61.70
41533;DHT22;27262;-35.248;149.138;2024-01-06T11:52:26;24.20;61.50
41533;DHT22;27262;-35.248;149.138;2024-01-06T11:54:57;24.20;61.50
41533;DHT22;27262;-35.248;149.138;2024-01-06T11:57:29;24.20;61.60
41533;DHT22;27262;-35.248;149.138;2024-01-06T11:59:59;24.20;61.50
41533;DHT22;27262;-35.248;149.138;2024-01-06T12:02:30;24.20;61.60
41533;DHT22;27262;-35.248;149.138;2024-01-06T12:05:00;24.20;61.60
41533;DHT22;27262;-35.248;149.138;2024-01-06T12:07:31;24.20;61.60
41533;DHT22;27262;-35.248;149.138;2024-01-06T12:10:03;24.20;61.60
41533;DHT22;27262;-35.248;149.138;2024-01-06T12:12:34;24.20;61.50
41533;DHT22;27262;-35.248;149.138;2024-01-06T12:15:05;24.10;61.50
41533;DHT22;27262;-35.248;149.138;2024-01-06T12:17:40;24.20;61.60
41533;DHT22;27262;-35.248;149.138;2024-01-06T12:20:11;24.10;61.50
41533;DHT22;27262;-35.248;149.138;2024-01-06T12:22:41;24.10;61.50
41533;DHT22;27262;-35.248;149.138;2024-01-06T12:25:15;24.10;61.50
41533;DHT22;27262;-35.248;149.138;2024-01-06T12:27:45;24.10;61.50
41533;DHT22;27262;-35.248;149.138;2024-01-06T12:30:20;24.10;61.50
41533;DHT22;27262;-35.248;149.138;2024-01-06T12:32:51;24.10;61.60
41533;DHT22;27262;-35.248;149.138;2024-01-06T12:35:22;24.10;61.60
41533;DHT22;27262;-35.248;149.138;2024-01-06T12:37:53;24.10;61.60
41533;DHT22;27262;-35.248;149.138;2024-01-06T12:40:23;24.10;61.50
41533;DHT22;27262;-35.248;149.138;2024-01-06T12:42:53;24.10;61.60
41533;DHT22;27262;-35.248;149.138;2024-01-06T12:45:24;24.10;61.60
41533;DHT22;27262;-35.248;149.138;2024-01-06T12:47:57;24.10;61.60
41533;DHT22;27262;-35.248;149.138;2024-01-06T12:50:27;24.10;61.60
41533;DHT22;27262;-35.248;149.138;2024-01-06T12:52:57;24.10;61.60
41533;DHT22;27262;-35.248;149.138;2024-01-06T12:55:28;24.10;61.70
41533;DHT22;27262;-35.248;149.138;2024-01-06T12:57:58;24.10;61.70
41533;DHT22;27262;-35.248;149.138;2024-01-06T13:00:31;24.00;61.60
41533;DHT22;27262;-35.248;149.138;2024-01-06T13:03:04;24.00;61.60
41533;DHT22;27262;-35.248;149.138;2024-01-06T13:05:35;24.00;61.50
41533;DHT22;27262;-35.248;149.138;2024-01-06T13:08:06;24.00;61.60
41533;DHT22;27262;-35.248;149.138;2024-01-06T13:10:37;24.00;61.60
41533;DHT22;27262;-35.248;149.138;2024-01-06T13:13:07;24.00;61.60
41533;DHT22;27262;-35.248;149.138;2024-01-06T13:15:38;24.00;61.60
41533;DHT22;27262;-35.248;149.138;2024-01-06T13:18:08;24.00;61.70
41533;DHT22;27262;-35.248;149.138;2024-01-06T13:20:40;24.10;61.70
41533;DHT22;27262;-35.248;149.138;2024-01-06T13:23:11;24.00;61.70
41533;DHT22;27262;-35.248;149.138;2024-01-06T13:25:42;24.00;61.70
41533;DHT22;27262;-35.248;149.138;2024-01-06T13:28:12;24.00;61.60
41533;DHT22;27262;-35.248;149.138;2024-01-06T13:30:43;24.00;61.60
41533;DHT22;27262;-35.248;149.138;2024-01-06T13:33:14;24.00;61.50
41533;DHT22;27262;-35.248;149.138;2024-01-06T13:35:44;24.00;61.60
41533;DHT22;27262;-35.248;149.138;2024-01-06T13:38:15;24.00;61.50
41533;DHT22;27262;-35.248;149.138;2024-01-06T13:40:47;24.00;61.60
41533;DHT22;27262;-35.248;149.138;2024-01-06T13:43:18;23.90;61.50
41533;DHT22;27262;-35.248;149.138;2024-01-06T13:45:49;23.90;61.50
41533;DHT22;27262;-35.248;149.138;2024-01-06T13:48:19;23.90;62.30
41533;DHT22;27262;-35.248;149.138;2024-01-06T13:50:50;23.90;61.50
41533;DHT22;27262;-35.248;149.138;2024-01-06T13:53:21;23.90;61.50
41533;DHT22;27262;-35.248;149.138;2024-01-06T13:55:52;23.90;61.40
41533;DHT22;27262;-35.248;149.138;2024-01-06T13:58:22;23.90;61.40
41533;DHT22;27262;-35.248;149.138;2024-01-06T14:00:53;23.90;61.40
41533;DHT22;27262;-35.248;149.138;2024-01-06T14:03:23;23.90;61.50
41533;DHT22;27262;-35.248;149.138;2024-01-06T14:05:54;23.90;61.50
41533;DHT22;27262;-35.248;149.138;2024-01-06T14:08:25;23.90;61.60
41533;DHT22;27262;-35.248;149.138;2024-01-06T14:10:55;23.90;61.60
41533;DHT22;27262;-35.248;149.138;2024-01-06T14:13:25;23.90;61.60
41533;DHT22;27262;-35.248;149.138;2024-01-06T14:15:59;23.90;61.70
41533;DHT22;27262;-35.248;149.138;2024-01-06T14:18:29;23.90;61.80
41533;DHT22;27262;-35.248;149.138;2024-01-06T14:21:00;23.90;61.80
41533;DHT22;27262;-35.248;149.138;2024-01-06T14:23:30;23.80;61.70
41533;DHT22;27262;-35.248;149.138;2024-01-06T14:26:02;23.80;61.70
41533;DHT22;27262;-35.248;149.138;2024-01-06T14:28:33;23.80;61.80
41533;DHT22;27262;-35.248;149.138;2024-01-06T14:31:03;23.80;61.80
41533;DHT22;27262;-35.248;149.138;2024-01-06T14:33:34;23.80;61.80
41533;DHT22;27262;-35.248;149.138;2024-01-06T14:36:04;23.80;61.80
41533;DHT22;27262;-35.248;149.138;2024-01-06T14:38:35;23.80;61.90
41533;DHT22;27262;-35.248;149.138;2024-01-06T14:41:05;23.80;61.90
41533;DHT22;27262;-35.248;149.138;2024-01-06T14:43:38;23.80;61.90
41533;DHT22;27262;-35.248;149.138;2024-01-06T14:46:09;23.80;61.90
41533;DHT22;27262;-35.248;149.138;2024-01-06T14:48:39;23.80;61.90
41533;DHT22;27262;-35.248;149.138;2024-01-06T14:51:10;23.80;61.90
41533;DHT22;27262;-35.248;149.138;2024-01-06T14:53:40;23.80;62.00
41533;DHT22;27262;-35.248;149.138;2024-01-06T14:56:10;23.80;62.00
41533;DHT22;27262;-35.248;149.138;2024-01-06T14:58:41;23.80;62.00
41533;DHT22;27262;-35.248;149.138;2024-01-06T15:01:11;23.80;62.10
41533;DHT22;27262;-35.248;149.138;2024-01-06T15:03:42;23.80;62.00
41533;DHT22;27262;-35.248;149.138;2024-01-06T15:06:12;23.70;61.90
41533;DHT22;27262;-35.248;149.138;2024-01-06T15:08:42;23.70;62.10
41533;DHT22;27262;-35.248;149.138;2024-01-06T15:11:13;23.70;62.10
41533;DHT22;27262;-35.248;149.138;2024-01-06T15:13:43;23.70;62.10
41533;DHT22;27262;-35.248;149.138;2024-01-06T15:16:14;23.70;62.10
41533;DHT22;27262;-35.248;149.138;2024-01-06T15:18:45;23.70;62.10
41533;DHT22;27262;-35.248;149.138;2024-01-06T15:21:16;23.70;62.10
41533;DHT22;27262;-35.248;149.138;2024-01-06T15:23:51;23.70;62.10
41533;DHT22;27262;-35.248;149.138;2024-01-06T15:26:28;23.70;62.10
41533;DHT22;27262;-35.248;149.138;2024-01-06T15:28:58;23.70;62.10